EZY46AM EGPF-EGAA
Flight info
| Callsign | EZY46AM |
|---|---|
| Flight time | 0h 30m |
| Altitude | 20000 |
| Route | NORBO L186 TRN P600 BLACA DCT BELZU |
| Aircraft | A319/M-SDE3FGHIRWY/LB1 |
Departure
| Time | 2026-04-28 17:46 |
|---|---|
| Airport | Glasgow Airport (EGPF) |
Arrival
| Time | 2026-04-28 18:16 |
|---|---|
| Airport | Belfast International Airport (EGAA) |
| Time | Latitude | Longitude | Altitude | Speed | Heading |
|---|---|---|---|---|---|
| 2026-04-28 17:16 | 55.86639 | -4.43310 | 29 ft | 0 kts | 254° |
| 2026-04-28 17:35 | 55.86641 | -4.43293 | 29 ft | 3 kts | 258° |
| 2026-04-28 17:35 | 55.86644 | -4.43251 | 29 ft | 3 kts | 284° |
| 2026-04-28 17:36 | 55.86633 | -4.43219 | 29 ft | 3 kts | 342° |
| 2026-04-28 17:36 | 55.86630 | -4.43217 | 29 ft | 0 kts | 344° |
| 2026-04-28 17:38 | 55.86631 | -4.43217 | 29 ft | 0 kts | 344° |
| 2026-04-28 17:38 | 55.86637 | -4.43221 | 29 ft | 2 kts | 344° |
| 2026-04-28 17:39 | 55.86651 | -4.43227 | 29 ft | 3 kts | 345° |
| 2026-04-28 17:39 | 55.86673 | -4.43238 | 29 ft | 4 kts | 343° |
| 2026-04-28 17:39 | 55.86737 | -4.43272 | 29 ft | 6 kts | 343° |
| 2026-04-28 17:40 | 55.86778 | -4.43298 | 29 ft | 7 kts | 330° |
| 2026-04-28 17:40 | 55.86792 | -4.43377 | 29 ft | 8 kts | 258° |
| 2026-04-28 17:40 | 55.86776 | -4.43473 | 29 ft | 9 kts | 253° |
| 2026-04-28 17:40 | 55.86757 | -4.43583 | 29 ft | 10 kts | 253° |
| 2026-04-28 17:41 | 55.86737 | -4.43709 | 29 ft | 11 kts | 254° |
| 2026-04-28 17:41 | 55.86695 | -4.43828 | 29 ft | 12 kts | 226° |
| 2026-04-28 17:41 | 55.86635 | -4.43941 | 29 ft | 13 kts | 227° |
| 2026-04-28 17:41 | 55.86568 | -4.44066 | 29 ft | 14 kts | 225° |
| 2026-04-28 17:42 | 55.86496 | -4.44199 | 29 ft | 16 kts | 226° |
| 2026-04-28 17:42 | 55.86445 | -4.44294 | 29 ft | 16 kts | 226° |
| 2026-04-28 17:42 | 55.86336 | -4.44500 | 29 ft | 18 kts | 226° |
| 2026-04-28 17:42 | 55.86258 | -4.44652 | 29 ft | 9 kts | 234° |
| 2026-04-28 17:43 | 55.86278 | -4.44755 | 29 ft | 10 kts | 316° |
| 2026-04-28 17:43 | 55.86290 | -4.44775 | 29 ft | 0 kts | 316° |
| 2026-04-28 17:44 | 55.86292 | -4.44778 | 29 ft | 1 kts | 317° |
| 2026-04-28 17:44 | 55.86313 | -4.44813 | 29 ft | 6 kts | 317° |
| 2026-04-28 17:44 | 55.86350 | -4.44863 | 29 ft | 7 kts | 341° |
| 2026-04-28 17:44 | 55.86390 | -4.44832 | 29 ft | 0 kts | 46° |
| 2026-04-28 17:45 | 55.86391 | -4.44830 | 29 ft | 1 kts | 46° |
| 2026-04-28 17:45 | 55.86393 | -4.44826 | 29 ft | 8 kts | 46° |
| 2026-04-28 17:45 | 55.86677 | -4.44299 | 29 ft | 107 kts | 46° |
| 2026-04-28 17:45 | 55.87375 | -4.43004 | 86 ft | 176 kts | 46° |
| 2026-04-28 17:46 | 55.88258 | -4.41331 | 756 ft | 187 kts | 46° |
| 2026-04-28 17:46 | 55.89133 | -4.39689 | 1378 ft | 190 kts | 46° |
| 2026-04-28 17:46 | 55.90085 | -4.37913 | 1686 ft | 211 kts | 46° |
| 2026-04-28 17:46 | 55.91159 | -4.35911 | 2242 ft | 236 kts | 46° |
| 2026-04-28 17:47 | 55.92351 | -4.33689 | 2873 ft | 258 kts | 46° |
| 2026-04-28 17:47 | 55.93737 | -4.31580 | 3779 ft | 268 kts | 27° |
| 2026-04-28 17:47 | 55.95553 | -4.30860 | 4770 ft | 273 kts | 356° |
| 2026-04-28 17:47 | 55.96194 | -4.31009 | 5019 ft | 276 kts | 346° |
| 2026-04-28 17:48 | 55.98570 | -4.34440 | 5476 ft | 273 kts | 291° |
| 2026-04-28 17:48 | 55.98761 | -4.37739 | 5524 ft | 270 kts | 258° |
| 2026-04-28 17:48 | 55.98174 | -4.40921 | 5528 ft | 270 kts | 246° |
| 2026-04-28 17:48 | 55.97393 | -4.43977 | 5531 ft | 270 kts | 243° |
| 2026-04-28 17:49 | 55.96837 | -4.45964 | 5532 ft | 270 kts | 242° |
| 2026-04-28 17:49 | 55.95982 | -4.48954 | 5531 ft | 270 kts | 242° |
| 2026-04-28 17:49 | 55.94877 | -4.51649 | 5529 ft | 270 kts | 224° |
| 2026-04-28 17:49 | 55.93523 | -4.53978 | 5530 ft | 270 kts | 224° |
| 2026-04-28 17:50 | 55.92188 | -4.56343 | 5530 ft | 270 kts | 225° |
| 2026-04-28 17:50 | 55.90866 | -4.58723 | 5530 ft | 270 kts | 225° |
| 2026-04-28 17:50 | 55.89545 | -4.61113 | 5530 ft | 270 kts | 225° |
| 2026-04-28 17:50 | 55.88226 | -4.63502 | 5530 ft | 270 kts | 225° |
| 2026-04-28 17:51 | 55.86906 | -4.65888 | 5530 ft | 270 kts | 225° |
| 2026-04-28 17:51 | 55.85437 | -4.67958 | 5530 ft | 271 kts | 212° |
| 2026-04-28 17:51 | 55.83839 | -4.69730 | 5529 ft | 271 kts | 212° |
| 2026-04-28 17:51 | 55.82243 | -4.71509 | 5529 ft | 271 kts | 212° |
| 2026-04-28 17:52 | 55.80647 | -4.73283 | 5529 ft | 271 kts | 211° |
| 2026-04-28 17:52 | 55.78924 | -4.74599 | 5528 ft | 271 kts | 195° |
| 2026-04-28 17:52 | 55.75175 | -4.75175 | 5529 ft | 271 kts | 182° |
| 2026-04-28 17:53 | 55.73290 | -4.75298 | 5529 ft | 271 kts | 182° |
| 2026-04-28 17:53 | 55.71394 | -4.75426 | 5734 ft | 275 kts | 182° |
| 2026-04-28 17:53 | 55.69483 | -4.75558 | 6832 ft | 275 kts | 182° |
| 2026-04-28 17:53 | 55.67556 | -4.75686 | 7872 ft | 279 kts | 182° |
| 2026-04-28 17:54 | 55.65604 | -4.75813 | 8858 ft | 283 kts | 182° |
| 2026-04-28 17:54 | 55.63621 | -4.75943 | 9813 ft | 287 kts | 182° |
| 2026-04-28 17:54 | 55.61580 | -4.76079 | 10459 ft | 304 kts | 182° |
| 2026-04-28 17:54 | 55.59380 | -4.76226 | 10831 ft | 328 kts | 182° |
| 2026-04-28 17:55 | 55.57021 | -4.76391 | 11252 ft | 347 kts | 182° |
| 2026-04-28 17:55 | 55.54581 | -4.76577 | 11979 ft | 355 kts | 183° |
| 2026-04-28 17:55 | 55.52097 | -4.76773 | 12768 ft | 359 kts | 183° |
| 2026-04-28 17:55 | 55.49584 | -4.76972 | 13548 ft | 364 kts | 183° |
| 2026-04-28 17:56 | 55.47039 | -4.77176 | 14312 ft | 368 kts | 183° |
| 2026-04-28 17:56 | 55.44467 | -4.77382 | 15053 ft | 372 kts | 183° |
| 2026-04-28 17:56 | 55.41870 | -4.77585 | 15775 ft | 376 kts | 182° |
| 2026-04-28 17:56 | 55.39243 | -4.77786 | 16478 ft | 380 kts | 182° |
| 2026-04-28 17:57 | 55.36624 | -4.77985 | 17153 ft | 384 kts | 182° |
| 2026-04-28 17:57 | 55.33940 | -4.78208 | 17823 ft | 388 kts | 185° |
| 2026-04-28 17:57 | 55.31273 | -4.79007 | 18472 ft | 391 kts | 195° |
| 2026-04-28 17:57 | 55.28710 | -4.80675 | 19110 ft | 395 kts | 206° |
| 2026-04-28 17:58 | 55.26247 | -4.82867 | 19713 ft | 399 kts | 207° |
| 2026-04-28 17:58 | 55.23761 | -4.85074 | 19946 ft | 401 kts | 207° |
| 2026-04-28 17:58 | 55.21242 | -4.87295 | 20006 ft | 414 kts | 207° |
| 2026-04-28 17:58 | 55.18621 | -4.89593 | 20010 ft | 426 kts | 206° |
| 2026-04-28 17:59 | 55.15955 | -4.91918 | 20010 ft | 429 kts | 206° |
| 2026-04-28 17:59 | 55.13279 | -4.94248 | 20010 ft | 430 kts | 206° |
| 2026-04-28 17:59 | 55.10602 | -4.96579 | 20009 ft | 430 kts | 206° |
| 2026-04-28 17:59 | 55.07925 | -4.98906 | 20009 ft | 430 kts | 206° |
| 2026-04-28 18:00 | 55.05250 | -5.01230 | 20008 ft | 430 kts | 206° |
| 2026-04-28 18:00 | 55.02575 | -5.03556 | 20008 ft | 430 kts | 206° |
| 2026-04-28 18:00 | 54.99897 | -5.05880 | 20010 ft | 430 kts | 206° |
| 2026-04-28 18:00 | 54.97222 | -5.08200 | 20011 ft | 430 kts | 206° |
| 2026-04-28 18:01 | 54.94544 | -5.10524 | 20008 ft | 430 kts | 207° |
| 2026-04-28 18:01 | 54.92015 | -5.13278 | 20003 ft | 430 kts | 218° |
| 2026-04-28 18:01 | 54.89834 | -5.16811 | 19951 ft | 428 kts | 229° |
| 2026-04-28 18:01 | 54.88111 | -5.20954 | 19695 ft | 421 kts | 240° |
| 2026-04-28 18:02 | 54.86873 | -5.25509 | 19113 ft | 415 kts | 250° |
| 2026-04-28 18:02 | 54.86083 | -5.30301 | 18493 ft | 411 kts | 255° |
| 2026-04-28 18:02 | 54.85356 | -5.35079 | 17877 ft | 408 kts | 255° |
| 2026-04-28 18:02 | 54.84617 | -5.39817 | 17252 ft | 406 kts | 255° |
| 2026-04-28 18:03 | 54.83869 | -5.44536 | 16633 ft | 404 kts | 254° |
| 2026-04-28 18:03 | 54.83123 | -5.49206 | 16033 ft | 401 kts | 254° |
| 2026-04-28 18:03 | 54.82378 | -5.53850 | 15431 ft | 398 kts | 254° |
| 2026-04-28 18:03 | 54.81639 | -5.58455 | 14830 ft | 395 kts | 254° |
| 2026-04-28 18:04 | 54.80910 | -5.63014 | 14230 ft | 391 kts | 254° |
| 2026-04-28 18:04 | 54.80251 | -5.67139 | 13682 ft | 387 kts | 254° |
| 2026-04-28 18:04 | 54.79591 | -5.71255 | 13129 ft | 383 kts | 254° |
| 2026-04-28 18:04 | 54.78870 | -5.75737 | 12520 ft | 379 kts | 254° |
| 2026-04-28 18:05 | 54.78174 | -5.80054 | 11928 ft | 375 kts | 254° |
| 2026-04-28 18:05 | 54.77701 | -5.82987 | 11562 ft | 373 kts | 254° |
| 2026-04-28 18:05 | 54.76785 | -5.88661 | 10888 ft | 361 kts | 254° |
| 2026-04-28 18:05 | 54.76126 | -5.92722 | 10428 ft | 341 kts | 254° |
| 2026-04-28 18:06 | 54.75496 | -5.96567 | 10007 ft | 323 kts | 254° |
| 2026-04-28 18:06 | 54.74896 | -6.00224 | 9576 ft | 309 kts | 254° |
| 2026-04-28 18:06 | 54.74321 | -6.03731 | 9153 ft | 297 kts | 254° |
| 2026-04-28 18:06 | 54.73768 | -6.07101 | 8727 ft | 287 kts | 254° |
| 2026-04-28 18:07 | 54.73229 | -6.10394 | 8303 ft | 283 kts | 254° |
| 2026-04-28 18:07 | 54.72693 | -6.13651 | 7877 ft | 281 kts | 253° |
| 2026-04-28 18:07 | 54.72161 | -6.16873 | 7451 ft | 274 kts | 253° |
| 2026-04-28 18:07 | 54.71648 | -6.19983 | 7052 ft | 263 kts | 253° |
| 2026-04-28 18:08 | 54.71158 | -6.22939 | 6773 ft | 249 kts | 253° |
| 2026-04-28 18:08 | 54.70693 | -6.25744 | 6501 ft | 236 kts | 253° |
| 2026-04-28 18:08 | 54.70250 | -6.28405 | 6228 ft | 225 kts | 253° |
| 2026-04-28 18:08 | 54.69825 | -6.30959 | 5942 ft | 219 kts | 253° |
| 2026-04-28 18:09 | 54.69407 | -6.33473 | 5668 ft | 217 kts | 253° |
| 2026-04-28 18:09 | 54.68996 | -6.35939 | 5402 ft | 216 kts | 253° |
| 2026-04-28 18:09 | 54.68580 | -6.38431 | 5141 ft | 216 kts | 253° |
| 2026-04-28 18:09 | 54.68164 | -6.40915 | 4864 ft | 215 kts | 253° |
| 2026-04-28 18:10 | 54.67752 | -6.43381 | 4620 ft | 212 kts | 253° |
| 2026-04-28 18:10 | 54.67343 | -6.45810 | 4340 ft | 210 kts | 253° |
| 2026-04-28 18:10 | 54.66937 | -6.48220 | 4062 ft | 208 kts | 253° |
| 2026-04-28 18:10 | 54.66500 | -6.50600 | 3787 ft | 208 kts | 246° |
| 2026-04-28 18:11 | 54.65613 | -6.52530 | 3506 ft | 207 kts | 218° |
| 2026-04-28 18:11 | 54.64317 | -6.53532 | 3236 ft | 206 kts | 191° |
| 2026-04-28 18:11 | 54.62899 | -6.53406 | 2955 ft | 204 kts | 165° |
| 2026-04-28 18:11 | 54.61637 | -6.52441 | 2680 ft | 194 kts | 155° |
| 2026-04-28 18:12 | 54.60438 | -6.51464 | 2405 ft | 189 kts | 155° |
| 2026-04-28 18:12 | 54.59316 | -6.50339 | 2134 ft | 187 kts | 136° |
| 2026-04-28 18:12 | 54.58773 | -6.48346 | 2055 ft | 188 kts | 96° |
| 2026-04-28 18:12 | 54.59088 | -6.46219 | 2057 ft | 187 kts | 59° |
| 2026-04-28 18:13 | 54.59759 | -6.44403 | 2053 ft | 175 kts | 62° |
| 2026-04-28 18:13 | 54.60267 | -6.42523 | 2056 ft | 171 kts | 66° |
| 2026-04-28 18:13 | 54.60741 | -6.40640 | 1947 ft | 170 kts | 66° |
| 2026-04-28 18:13 | 54.61209 | -6.38784 | 1694 ft | 168 kts | 66° |
| 2026-04-28 18:14 | 54.61681 | -6.36947 | 1452 ft | 167 kts | 66° |
| 2026-04-28 18:14 | 54.62155 | -6.35121 | 1228 ft | 166 kts | 66° |
| 2026-04-28 18:14 | 54.62614 | -6.33366 | 1006 ft | 151 kts | 66° |
| 2026-04-28 18:14 | 54.63031 | -6.31791 | 811 ft | 139 kts | 65° |
| 2026-04-28 18:15 | 54.63425 | -6.30303 | 636 ft | 135 kts | 65° |
| 2026-04-28 18:15 | 54.63801 | -6.28843 | 509 ft | 132 kts | 68° |
| 2026-04-28 18:15 | 54.64185 | -6.27406 | 548 ft | 132 kts | 64° |
| 2026-04-28 18:15 | 54.64567 | -6.25962 | 520 ft | 132 kts | 65° |
| 2026-04-28 18:16 | 54.64956 | -6.24529 | 430 ft | 133 kts | 64° |
| 2026-04-28 18:16 | 54.65345 | -6.23090 | 300 ft | 132 kts | 65° |
| 2026-04-28 18:16 | 54.65677 | -6.21848 | 272 ft | 91 kts | 64° |
| 2026-04-28 18:16 | 54.65839 | -6.21260 | 272 ft | 40 kts | 64° |
| 2026-04-28 18:17 | 54.65949 | -6.20844 | 272 ft | 38 kts | 64° |
| 2026-04-28 18:17 | 54.66067 | -6.20411 | 272 ft | 42 kts | 65° |
| 2026-04-28 18:17 | 54.66188 | -6.19953 | 272 ft | 42 kts | 65° |
| 2026-04-28 18:17 | 54.66252 | -6.19719 | 272 ft | 11 kts | 64° |
| 2026-04-28 18:18 | 54.66320 | -6.19682 | 272 ft | 12 kts | 339° |
| 2026-04-28 18:18 | 54.66385 | -6.19771 | 272 ft | 13 kts | 302° |
| 2026-04-28 18:18 | 54.66379 | -6.19923 | 275 ft | 14 kts | 246° |
| 2026-04-28 18:18 | 54.66351 | -6.20028 | 274 ft | 15 kts | 244° |
| 2026-04-28 18:19 | 54.66290 | -6.20253 | 272 ft | 17 kts | 245° |
| 2026-04-28 18:19 | 54.66227 | -6.20485 | 272 ft | 25 kts | 245° |
| 2026-04-28 18:19 | 54.66152 | -6.20764 | 275 ft | 26 kts | 245° |
| 2026-04-28 18:19 | 54.66079 | -6.21036 | 272 ft | 17 kts | 244° |
| 2026-04-28 18:20 | 54.66049 | -6.21164 | 272 ft | 11 kts | 269° |
| 2026-04-28 18:20 | 54.66090 | -6.21234 | 272 ft | 3 kts | 335° |
| 2026-04-28 18:20 | 54.66114 | -6.21253 | 275 ft | 4 kts | 334° |
| 2026-04-28 18:20 | 54.66124 | -6.21302 | 272 ft | 5 kts | 256° |
| 2026-04-28 18:21 | 54.66111 | -6.21346 | 276 ft | 3 kts | 245° |
| 2026-04-28 18:21 | 54.66108 | -6.21358 | 274 ft | 0 kts | 246° |